YBCG/OOL METAR and TAF weather

Enter ICAO airport designator
Station Type Date Time Source
YBCG METAR 2019/04/25 01:30 UTC NOAA

YBCG 250130Z AUTO 13005KT 9999 // SCT027 BKN033 OVC040 23/18 Q1020


Station Type Date Time Source
YBCG Decoded METAR 2019/04/25 01:30 UTC NOAA

Coolangatta Airport Aws, Australia (YBCG) 28-10S 153-30E 6M
Apr 24, 2019 - 09:30 PM EDT / 2019.04.25 0130 UTC
Wind: from the SE (130 degrees) at 6 MPH (5 KT):0
Visibility: greater than 7 mile(s):0
Sky conditions: overcast
Temperature: 73 F (23 C)
Dew Point: 64 F (18 C)
Relative Humidity: 73%
Pressure (altimeter): 30.12 in. Hg (1020 hPa)
ob: YBCG 250130Z AUTO 13005KT 9999 // SCT027 BKN033 OVC040 23/18 Q1020
cycle: 1

Station Type Date Time Source
YBCG TAF 2019/04/24 18:33 UTC NOAA

TAF YBCG 241707Z 2418/2518 VRB03KT 9999 -SHRA FEW025 BKN040
FM250000 12012KT 9999 SCT035
FM250800 23005KT 9999 SCT030

Example: see airport list